Time;durP1;ratioP1;P1;durP2;ratioP2;P2;SDS_P1;SDS_P2;PMS_P1;PMS_P2;Temp;Humidity;BMP_temperature;BMP_pressure;BME280_temperature;BME280_humidity;BME280_pressure;Samples;Min_cycle;Max_cycle;Signal;HPM_P1;HPM_P2
2023/06/23 00:00:23;;;;;;;18.65;16.63;;;15.70;99.90;;;;;;5056995;28;20288;-77
2023/06/23 00:02:52;;;;;;;22.48;17.92;;;15.60;99.90;;;;;;5057770;28;20552;-75
2023/06/23 00:05:18;;;;;;;23.75;19.17;;;15.60;99.90;;;;;;5057597;28;20177;-76
2023/06/23 00:07:44;;;;;;;22.15;19.75;;;15.60;99.90;;;;;;5057782;28;20572;-77
2023/06/23 00:10:10;;;;;;;24.73;19.77;;;15.60;99.90;;;;;;5059536;28;20188;-78
2023/06/23 00:12:41;;;;;;;24.15;19.58;;;15.60;99.90;;;;;;5058606;28;20178;-78
2023/06/23 00:15:08;;;;;;;24.52;20.00;;;15.60;99.90;;;;;;5076512;28;20177;-78
2023/06/23 00:17:36;;;;;;;23.52;19.70;;;15.70;99.90;;;;;;5076095;28;20205;-78
2023/06/23 00:20:12;;;;;;;23.20;18.75;;;15.70;99.90;;;;;;5076412;28;20197;-78
2023/06/23 00:22:40;;;;;;;23.02;17.45;;;15.60;99.90;;;;;;5058018;28;20311;-77
2023/06/23 00:25:09;;;;;;;17.70;15.15;;;15.60;99.90;;;;;;5075996;28;20646;-77
2023/06/23 00:27:37;;;;;;;17.17;13.98;;;15.50;99.90;;;;;;5057271;28;20201;-77
2023/06/23 00:30:03;;;;;;;18.63;14.27;;;15.50;99.90;;;;;;5057245;28;20526;-77
2023/06/23 00:34:56;;;;;;;16.92;13.32;;;15.40;99.90;;;;;;5053694;28;20213;-76
2023/06/23 00:37:22;;;;;;;20.45;15.30;;;15.40;99.90;;;;;;5037366;28;20194;-77
2023/06/23 00:39:48;;;;;;;19.42;16.08;;;15.30;99.90;;;;;;5056187;28;20198;-77
2023/06/23 00:42:14;;;;;;;21.50;17.10;;;15.40;99.90;;;;;;5037421;28;20209;-77
2023/06/23 00:44:40;;;;;;;24.20;18.80;;;15.40;99.90;;;;;;5043761;28;20177;-78
2023/06/23 00:47:08;;;;;;;20.67;17.85;;;15.30;99.90;;;;;;5044457;28;20194;-81
2023/06/23 00:49:35;;;;;;;23.17;18.30;;;15.40;99.90;;;;;;5057287;28;20266;-80
2023/06/23 00:52:07;;;;;;;22.05;17.35;;;15.40;99.90;;;;;;5039363;28;20258;-80
2023/06/23 00:54:35;;;;;;;23.65;18.77;;;15.40;99.90;;;;;;5057282;28;20185;-80
2023/06/23 00:57:02;;;;;;;22.98;18.13;;;15.40;99.90;;;;;;5038877;28;20205;-80
2023/06/23 00:59:28;;;;;;;25.83;19.45;;;15.40;99.90;;;;;;5057101;28;20195;-80
2023/06/23 01:02:00;;;;;;;24.90;19.58;;;15.40;99.90;;;;;;5057249;28;20678;-79
2023/06/23 01:04:27;;;;;;;24.95;19.80;;;15.40;99.90;;;;;;5056822;28;20171;-79
2023/06/23 01:07:16;;;;;;;24.33;19.58;;;15.40;99.90;;;;;;5038037;28;20586;-79
2023/06/23 01:09:45;;;;;;;22.92;18.38;;;15.50;99.90;;;;;;5038239;28;20186;-78
2023/06/23 01:12:33;;;;;;;24.95;18.58;;;15.50;99.90;;;;;;5054812;28;20163;-79
2023/06/23 01:15:02;;;;;;;20.35;17.50;;;15.40;99.90;;;;;;5056101;28;20165;-78
2023/06/23 01:17:48;;;;;;;21.48;16.27;;;15.40;99.90;;;;;;5055348;28;20205;-78
2023/06/23 01:20:21;;;;;;;19.98;15.85;;;15.40;99.90;;;;;;5055655;28;20178;-79
2023/06/23 01:23:20;;;;;;;19.92;15.38;;;15.40;99.90;;;;;;5056568;28;20151;-78
2023/06/23 01:26:10;;;;;;;17.77;14.93;;;15.40;99.90;;;;;;5055545;28;20201;-78
2023/06/23 01:28:49;;;;;;;17.17;14.73;;;15.30;99.90;;;;;;5037284;28;20179;-79
2023/06/23 01:31:24;;;;;;;16.90;14.00;;;15.30;99.90;;;;;;5055120;28;20170;-78
2023/06/23 01:33:57;;;;;;;17.52;13.43;;;15.30;99.90;;;;;;5055638;28;20667;-79
2023/06/23 01:36:44;;;;;;;17.05;13.45;;;15.20;99.90;;;;;;5037985;28;20194;-79
2023/06/23 01:39:18;;;;;;;17.48;13.98;;;15.20;99.90;;;;;;5056473;28;20582;-79
2023/06/23 01:42:07;;;;;;;17.80;12.95;;;15.10;99.90;;;;;;5055418;28;20163;-78
2023/06/23 01:44:35;;;;;;;17.20;14.00;;;15.10;99.90;;;;;;5037702;28;20180;-79
2023/06/23 01:47:08;;;;;;;19.33;14.20;;;15.10;99.90;;;;;;5055382;28;20198;-78
2023/06/23 01:49:37;;;;;;;18.70;14.00;;;15.10;99.90;;;;;;5038293;28;20545;-79
2023/06/23 01:52:06;;;;;;;18.05;13.18;;;15.20;99.90;;;;;;5038201;28;20190;-79
2023/06/23 01:54:37;;;;;;;20.92;14.43;;;15.10;99.90;;;;;;5055690;28;20171;-79
2023/06/23 01:57:05;;;;;;;17.00;13.52;;;15.10;99.90;;;;;;5038390;28;20205;-79
2023/06/23 01:59:33;;;;;;;18.77;14.07;;;15.10;99.90;;;;;;5037432;28;20203;-78
2023/06/23 02:02:00;;;;;;;20.83;14.70;;;15.20;99.90;;;;;;5055625;28;20242;-79
2023/06/23 02:04:29;;;;;;;21.80;15.27;;;15.10;99.90;;;;;;5037499;28;20178;-79
2023/06/23 02:06:56;;;;;;;21.25;15.23;;;15.20;99.90;;;;;;5055479;28;20293;-78
2023/06/23 02:09:26;;;;;;;20.67;15.95;;;15.20;99.90;;;;;;5055014;28;20253;-78
2023/06/23 02:11:54;;;;;;;17.20;14.77;;;15.20;99.90;;;;;;5036963;28;20683;-78
2023/06/23 02:14:21;;;;;;;20.98;15.85;;;15.20;99.90;;;;;;5055161;28;20178;-78
2023/06/23 02:16:48;;;;;;;22.15;16.27;;;15.20;99.90;;;;;;5055069;28;20197;-78
2023/06/23 02:19:16;;;;;;;25.50;16.20;;;15.20;99.90;;;;;;5054862;28;20243;-78
2023/06/23 02:21:43;;;;;;;22.42;17.13;;;15.20;99.90;;;;;;5054978;28;20253;-79
2023/06/23 02:24:10;;;;;;;23.15;17.38;;;15.30;99.90;;;;;;5054395;28;20170;-79
2023/06/23 02:26:38;;;;;;;22.23;17.88;;;15.30;99.90;;;;;;5038466;28;20195;-79
2023/06/23 02:29:06;;;;;;;23.83;18.20;;;15.30;99.90;;;;;;5056423;28;20621;-79
2023/06/23 02:31:33;;;;;;;26.15;18.75;;;15.30;99.90;;;;;;5039504;28;20178;-80
2023/06/23 02:34:00;;;;;;;27.80;19.45;;;15.30;99.90;;;;;;5057625;28;20239;-79
2023/06/23 02:36:35;;;;;;;28.13;19.33;;;15.30;99.90;;;;;;5057971;28;20194;-79
2023/06/23 02:39:04;;;;;;;29.25;19.80;;;15.30;99.90;;;;;;5058396;28;20193;-79
2023/06/23 02:41:34;;;;;;;28.48;20.70;;;15.30;99.90;;;;;;5058171;28;20176;-79
2023/06/23 02:44:05;;;;;;;26.73;19.58;;;15.40;99.90;;;;;;5038703;28;20167;-77
2023/06/23 02:46:38;;;;;;;25.17;19.13;;;15.40;99.90;;;;;;5035787;28;20198;-76
2023/06/23 02:49:08;;;;;;;34.47;22.17;;;15.40;99.90;;;;;;5053787;28;20162;-77
2023/06/23 02:51:36;;;;;;;26.48;20.45;;;15.40;99.90;;;;;;5053623;28;20530;-78
2023/06/23 02:54:08;;;;;;;30.67;20.90;;;15.40;99.90;;;;;;5035215;28;20181;-77
2023/06/23 02:56:41;;;;;;;30.83;22.58;;;15.50;99.90;;;;;;5053403;28;20281;-77
2023/06/23 02:59:10;;;;;;;31.00;21.98;;;15.50;99.90;;;;;;5053299;28;20187;-77
2023/06/23 03:01:40;;;;;;;33.42;23.02;;;15.50;99.90;;;;;;5035256;28;20202;-77
2023/06/23 03:04:06;;;;;;;34.28;24.20;;;15.50;99.90;;;;;;5053440;28;20611;-78
2023/06/23 03:06:35;;;;;;;35.30;24.10;;;15.50;99.90;;;;;;5035226;28;20229;-78
2023/06/23 03:09:02;;;;;;;32.90;25.10;;;15.50;99.90;;;;;;5035201;28;20178;-77
2023/06/23 03:11:30;;;;;;;35.72;25.20;;;15.50;99.90;;;;;;5052798;28;20186;-77
2023/06/23 03:13:57;;;;;;;33.08;24.67;;;15.60;99.90;;;;;;5053413;28;20205;-77
2023/06/23 03:16:28;;;;;;;36.17;26.73;;;15.60;99.90;;;;;;5053134;28;20191;-77
2023/06/23 03:19:09;;;;;;;37.47;27.33;;;15.60;99.90;;;;;;5052712;28;20320;-75
2023/06/23 03:21:37;;;;;;;41.17;28.67;;;15.60;99.90;;;;;;5034990;28;20650;-76
2023/06/23 03:24:07;;;;;;;39.15;28.33;;;15.60;99.90;;;;;;5052907;28;20171;-76
2023/06/23 03:26:36;;;;;;;45.17;29.70;;;15.60;99.90;;;;;;5052546;28;20624;-76
2023/06/23 03:29:04;;;;;;;42.22;29.25;;;15.60;99.90;;;;;;5053009;28;20292;-75
2023/06/23 03:31:30;;;;;;;43.25;29.20;;;15.60;99.90;;;;;;5052792;28;20197;-76
2023/06/23 03:33:57;;;;;;;39.03;27.85;;;15.60;99.90;;;;;;5034471;28;20213;-75
2023/06/23 03:36:25;;;;;;;38.83;27.73;;;15.60;99.90;;;;;;5055335;28;20281;-75
2023/06/23 03:39:01;;;;;;;37.78;28.20;;;15.60;99.90;;;;;;5056256;28;20269;-75
2023/06/23 03:41:29;;;;;;;43.67;28.27;;;15.60;99.90;;;;;;5056176;28;20624;-75
2023/06/23 03:44:05;;;;;;;37.80;27.35;;;15.60;99.90;;;;;;5038241;28;20245;-76
2023/06/23 03:46:40;;;;;;;40.00;28.13;;;15.50;99.90;;;;;;5056131;28;20236;-76
2023/06/23 03:49:08;;;;;;;42.55;27.98;;;15.50;99.90;;;;;;5038139;28;20217;-76
2023/06/23 03:51:36;;;;;;;39.92;26.98;;;15.50;99.90;;;;;;5055863;28;20183;-76
2023/06/23 03:54:04;;;;;;;32.28;26.05;;;15.50;99.90;;;;;;5055986;28;20175;-77
2023/06/23 03:56:34;;;;;;;36.58;26.73;;;15.50;99.90;;;;;;5038100;28;20207;-76
2023/06/23 03:59:02;;;;;;;39.63;26.90;;;15.50;99.90;;;;;;5056331;28;20187;-76
2023/06/23 04:01:30;;;;;;;37.63;27.67;;;15.50;99.90;;;;;;5056116;28;20293;-76
2023/06/23 04:03:57;;;;;;;41.35;27.08;;;15.60;99.90;;;;;;5038062;28;20677;-77
2023/06/23 04:06:26;;;;;;;42.65;28.90;;;15.60;99.90;;;;;;5056097;28;20225;-77
2023/06/23 04:08:54;;;;;;;37.70;26.67;;;15.50;99.90;;;;;;5055720;28;20186;-77
2023/06/23 04:11:22;;;;;;;43.85;29.20;;;15.50;99.90;;;;;;5055629;28;20206;-76
2023/06/23 04:13:58;;;;;;;41.22;29.55;;;15.60;99.90;;;;;;5055792;28;20552;-76
2023/06/23 04:16:26;;;;;;;39.10;29.27;;;15.60;99.90;;;;;;5037673;28;20198;-77
2023/06/23 04:18:54;;;;;;;42.83;28.58;;;15.60;99.90;;;;;;5055947;28;20667;-74
2023/06/23 04:21:23;;;;;;;40.03;28.42;;;15.60;99.90;;;;;;5038149;28;20205;-76
2023/06/23 04:23:51;;;;;;;46.30;30.17;;;15.60;99.90;;;;;;5037535;28;20261;-76
2023/06/23 04:26:17;;;;;;;46.35;30.92;;;15.60;99.90;;;;;;5055365;28;20209;-77
2023/06/23 04:28:45;;;;;;;50.08;32.30;;;15.60;99.90;;;;;;5055271;28;20174;-76
2023/06/23 04:31:12;;;;;;;49.92;32.15;;;15.60;99.90;;;;;;5055321;28;20182;-76
2023/06/23 04:33:38;;;;;;;46.35;31.30;;;15.60;99.90;;;;;;5055238;28;20650;-76
2023/06/23 04:36:16;;;;;;;44.53;31.50;;;15.70;99.90;;;;;;5055185;28;20205;-76
2023/06/23 04:38:50;;;;;;;58.17;36.92;;;15.70;99.90;;;;;;5037255;28;20264;-76
2023/06/23 04:41:21;;;;;;;50.53;35.03;;;15.70;99.90;;;;;;5037249;28;20174;-77
2023/06/23 04:43:52;;;;;;;59.63;38.90;;;15.60;99.90;;;;;;5037414;28;20170;-77
2023/06/23 04:46:28;;;;;;;59.75;39.63;;;15.60;99.90;;;;;;5055343;28;20195;-76
2023/06/23 04:48:59;;;;;;;58.65;38.42;;;15.60;99.90;;;;;;5055364;28;20213;-76
2023/06/23 04:51:29;;;;;;;58.85;38.72;;;15.60;99.90;;;;;;5055373;28;20515;-76
2023/06/23 04:54:00;;;;;;;61.40;41.95;;;15.70;99.90;;;;;;5037349;28;20603;-76
2023/06/23 04:56:32;;;;;;;65.45;43.72;;;15.60;99.90;;;;;;5037049;28;20198;-76
2023/06/23 04:59:03;;;;;;;72.65;45.55;;;15.70;99.90;;;;;;5036990;28;20630;-75
2023/06/23 05:01:32;;;;;;;66.47;44.30;;;15.70;99.90;;;;;;5037515;28;20170;-75
2023/06/23 05:04:00;;;;;;;65.55;44.42;;;15.70;99.90;;;;;;5037521;28;20171;-75
2023/06/23 05:06:27;;;;;;;70.30;44.85;;;15.70;99.90;;;;;;5055016;28;20218;-76
2023/06/23 05:08:55;;;;;;;66.60;43.25;;;15.70;99.90;;;;;;5054776;28;20554;-76
2023/06/23 05:11:21;;;;;;;68.40;41.88;;;15.70;99.90;;;;;;5054625;28;20174;-75
2023/06/23 05:13:48;;;;;;;62.67;41.92;;;15.70;99.90;;;;;;5054391;28;20249;-76
2023/06/23 05:16:16;;;;;;;71.28;44.83;;;15.80;99.90;;;;;;5054598;28;20247;-76
2023/06/23 05:18:45;;;;;;;67.65;42.78;;;15.80;99.90;;;;;;5036652;28;20198;-77
2023/06/23 05:21:13;;;;;;;65.90;43.15;;;15.70;99.90;;;;;;5036668;28;20198;-75
2023/06/23 05:23:41;;;;;;;65.80;43.30;;;15.80;99.90;;;;;;5055198;28;20155;-77
2023/06/23 05:26:08;;;;;;;63.95;42.35;;;15.80;99.90;;;;;;5054504;28;20198;-77
2023/06/23 05:28:37;;;;;;;70.35;44.80;;;15.90;99.90;;;;;;5054459;28;20166;-77
2023/06/23 05:31:08;;;;;;;65.43;44.13;;;15.90;99.90;;;;;;5036533;28;20182;-77
2023/06/23 05:33:36;;;;;;;59.40;43.72;;;15.90;99.90;;;;;;5054245;28;20185;-76
2023/06/23 05:36:07;;;;;;;60.15;41.97;;;15.90;99.90;;;;;;5037730;28;20244;-76
2023/06/23 05:38:57;;;;;;;58.78;38.85;;;15.90;99.90;;;;;;5055491;28;20609;-77
2023/06/23 05:41:24;;;;;;;55.47;38.53;;;16.00;99.90;;;;;;5036933;28;20186;-78
2023/06/23 05:43:52;;;;;;;57.30;38.20;;;15.90;99.90;;;;;;5036530;28;20605;-77
2023/06/23 05:46:23;;;;;;;55.42;38.38;;;15.90;99.90;;;;;;5054532;28;20270;-76
2023/06/23 05:48:52;;;;;;;49.80;37.17;;;16.00;99.90;;;;;;5054257;28;20594;-76
2023/06/23 05:51:25;;;;;;;54.83;37.20;;;16.00;99.90;;;;;;5036342;28;20219;-77
2023/06/23 05:53:54;;;;;;;48.63;35.97;;;15.90;99.90;;;;;;5036292;28;20178;-77
2023/06/23 05:56:31;;;;;;;48.95;36.10;;;16.00;99.90;;;;;;5036007;28;20249;-76
2023/06/23 05:59:01;;;;;;;52.08;35.08;;;15.90;99.90;;;;;;5053000;28;20197;-76
2023/06/23 06:01:30;;;;;;;45.13;35.13;;;15.90;99.90;;;;;;5054108;28;20636;-77
2023/06/23 06:04:12;;;;;;;51.65;35.72;;;15.90;99.90;;;;;;5036120;28;20178;-77
2023/06/23 06:06:40;;;;;;;46.55;33.47;;;16.00;99.90;;;;;;5036219;28;20241;-77
2023/06/23 06:09:11;;;;;;;46.17;33.92;;;15.90;99.90;;;;;;5055199;28;20174;-75
2023/06/23 06:11:43;;;;;;;47.63;34.15;;;16.00;99.90;;;;;;5055094;28;20163;-79
2023/06/23 06:14:11;;;;;;;48.05;34.05;;;15.90;99.90;;;;;;5038364;28;20189;-79
2023/06/23 06:16:38;;;;;;;48.45;33.83;;;16.00;99.90;;;;;;5037782;28;20282;-79
2023/06/23 06:19:06;;;;;;;46.30;33.10;;;16.00;99.90;;;;;;5038278;28;20574;-79
2023/06/23 06:21:33;;;;;;;49.28;34.55;;;15.90;99.90;;;;;;5037992;28;20174;-79
2023/06/23 06:24:00;;;;;;;48.28;33.63;;;15.90;99.90;;;;;;5037835;28;20630;-79
2023/06/23 06:26:26;;;;;;;53.83;37.17;;;15.90;99.90;;;;;;5038144;28;20628;-79
2023/06/23 06:28:54;;;;;;;53.85;36.25;;;16.00;99.90;;;;;;5055894;28;20170;-79
2023/06/23 06:31:22;;;;;;;54.72;37.08;;;16.00;99.90;;;;;;5037843;28;20193;-79
2023/06/23 06:33:53;;;;;;;49.92;34.72;;;16.00;99.90;;;;;;5037466;28;20284;-80
2023/06/23 06:36:22;;;;;;;49.30;33.85;;;16.00;99.90;;;;;;5055032;28;20198;-79
2023/06/23 06:38:51;;;;;;;47.42;35.55;;;15.90;99.90;;;;;;5037227;28;20634;-80
2023/06/23 06:41:19;;;;;;;55.25;35.80;;;16.00;99.90;;;;;;5055486;28;20673;-80
2023/06/23 06:43:44;;;;;;;55.17;36.05;;;16.00;99.90;;;;;;5037684;28;20202;-79
2023/06/23 06:46:12;;;;;;;51.95;35.47;;;16.10;99.90;;;;;;5038138;28;20194;-78
2023/06/23 06:48:39;;;;;;;49.38;34.83;;;16.20;99.90;;;;;;5056786;28;20176;-77
2023/06/23 06:51:06;;;;;;;45.65;32.88;;;16.30;99.90;;;;;;5035582;28;20556;-77
2023/06/23 06:53:32;;;;;;;46.45;33.35;;;16.40;99.90;;;;;;5053343;28;20198;-76
2023/06/23 06:55:58;;;;;;;43.05;31.15;;;16.40;99.90;;;;;;5053088;28;20171;-77
2023/06/23 06:58:25;;;;;;;45.33;31.02;;;16.50;99.90;;;;;;5035522;28;20270;-76
2023/06/23 07:00:55;;;;;;;39.13;28.63;;;16.60;99.90;;;;;;5053295;28;20609;-77
2023/06/23 07:03:22;;;;;;;37.97;27.63;;;16.60;99.90;;;;;;5035487;28;20171;-76
2023/06/23 07:05:48;;;;;;;36.08;26.08;;;16.60;99.90;;;;;;5035765;28;20214;-77
2023/06/23 07:08:13;;;;;;;32.10;25.02;;;16.60;99.90;;;;;;5054070;28;20228;-77
2023/06/23 07:10:39;;;;;;;30.10;22.15;;;16.70;99.90;;;;;;5056874;28;20170;-77
2023/06/23 07:13:05;;;;;;;32.28;22.52;;;16.70;99.90;;;;;;5057522;28;20257;-77
2023/06/23 07:15:31;;;;;;;30.50;20.42;;;16.70;99.90;;;;;;5058277;28;20175;-76
2023/06/23 07:17:57;;;;;;;26.60;20.08;;;16.70;99.90;;;;;;5056696;28;20190;-77
2023/06/23 07:20:23;;;;;;;26.77;20.13;;;16.80;99.90;;;;;;5057629;28;20197;-77
2023/06/23 07:22:48;;;;;;;25.83;19.10;;;17.00;99.90;;;;;;5057613;28;20182;-77
2023/06/23 07:25:14;;;;;;;25.17;19.58;;;17.00;99.90;;;;;;5057321;28;20181;-77
2023/06/23 07:27:40;;;;;;;25.10;19.63;;;17.00;99.90;;;;;;5039393;28;20202;-77
2023/06/23 07:30:06;;;;;;;26.10;19.25;;;17.10;99.90;;;;;;5057166;28;20170;-77
2023/06/23 07:32:32;;;;;;;22.55;16.77;;;17.10;99.90;;;;;;5057073;28;20293;-77
2023/06/23 07:34:59;;;;;;;24.25;16.90;;;17.00;99.90;;;;;;5057276;28;20666;-77
2023/06/23 07:37:24;;;;;;;22.10;16.85;;;17.20;99.90;;;;;;5056961;28;20213;-77
2023/06/23 07:39:50;;;;;;;22.27;15.57;;;17.20;99.90;;;;;;5057093;28;20202;-77
2023/06/23 07:42:16;;;;;;;19.42;14.43;;;17.40;99.90;;;;;;5039051;28;20546;-77
2023/06/23 07:44:41;;;;;;;20.90;14.57;;;17.50;99.90;;;;;;5056388;28;20182;-77
2023/06/23 07:47:07;;;;;;;17.05;12.02;;;17.70;99.90;;;;;;5056634;28;20201;-77
2023/06/23 07:49:33;;;;;;;16.63;12.00;;;17.90;99.90;;;;;;5038237;28;20184;-77
2023/06/23 07:52:04;;;;;;;16.67;12.15;;;17.90;99.90;;;;;;5038640;28;20179;-77
2023/06/23 07:54:30;;;;;;;17.35;12.70;;;18.00;99.90;;;;;;5056497;28;20634;-77
2023/06/23 07:56:57;;;;;;;13.82;11.13;;;18.00;99.90;;;;;;5056598;28;20202;-77
2023/06/23 07:59:25;;;;;;;15.93;11.40;;;18.10;99.90;;;;;;5038755;28;20229;-77
2023/06/23 08:01:51;;;;;;;13.05;10.50;;;18.10;99.90;;;;;;5059901;28;20170;-78
2023/06/23 08:04:17;;;;;;;15.15;11.43;;;18.20;99.90;;;;;;5059971;28;20245;-78
2023/06/23 08:06:43;;;;;;;14.35;9.90;;;18.20;99.90;;;;;;5040744;28;20284;-78
2023/06/23 08:09:09;;;;;;;13.23;10.02;;;18.40;99.90;;;;;;5058085;28;20174;-79
2023/06/23 08:11:35;;;;;;;15.88;10.45;;;18.40;99.90;;;;;;5057182;28;20190;-77
2023/06/23 08:14:01;;;;;;;12.88;9.13;;;18.50;99.90;;;;;;5055775;28;20174;-77
2023/06/23 08:16:27;;;;;;;11.55;8.65;;;18.60;99.90;;;;;;5037783;28;20202;-77
2023/06/23 08:18:53;;;;;;;10.80;8.13;;;18.70;99.90;;;;;;5037958;28;20244;-77
2023/06/23 08:21:19;;;;;;;12.00;7.38;;;18.80;99.90;;;;;;5055326;28;20170;-77
2023/06/23 08:23:48;;;;;;;11.35;6.60;;;18.80;99.90;;;;;;5056244;28;20174;-78
2023/06/23 08:26:16;;;;;;;14.35;6.30;;;18.90;99.90;;;;;;5057671;28;20208;-78
2023/06/23 08:28:42;;;;;;;8.20;6.05;;;19.00;99.90;;;;;;5057754;28;20655;-79
2023/06/23 08:31:07;;;;;;;8.18;5.40;;;19.10;99.90;;;;;;5039600;28;20174;-79
2023/06/23 08:33:34;;;;;;;9.27;6.20;;;19.20;99.90;;;;;;5057440;28;20182;-79
2023/06/23 08:36:01;;;;;;;9.52;6.03;;;19.20;99.90;;;;;;5057258;28;20166;-78
2023/06/23 08:38:27;;;;;;;9.52;6.03;;;19.30;99.90;;;;;;5057305;28;20166;-79
2023/06/23 08:40:54;;;;;;;8.68;5.53;;;19.40;99.90;;;;;;5057679;28;20256;-79
2023/06/23 08:43:26;;;;;;;9.02;5.40;;;19.40;99.90;;;;;;5057366;28;20179;-78
2023/06/23 08:45:57;;;;;;;9.60;5.20;;;19.30;99.90;;;;;;5058049;28;20402;-78
2023/06/23 08:48:26;;;;;;;7.13;5.20;;;19.30;99.90;;;;;;5057899;28;20170;-79
2023/06/23 08:51:02;;;;;;;7.57;4.60;;;19.20;99.90;;;;;;5039152;28;20239;-79
2023/06/23 08:53:28;;;;;;;9.18;5.10;;;19.20;99.90;;;;;;5038867;28;20661;-79
2023/06/23 08:55:55;;;;;;;9.95;5.10;;;19.30;99.90;;;;;;5038746;28;20183;-77
2023/06/23 08:58:22;;;;;;;8.00;5.80;;;19.20;99.90;;;;;;5057091;28;20237;-79
2023/06/23 09:00:53;;;;;;;8.15;5.05;;;19.40;99.90;;;;;;5057236;28;20206;-78
2023/06/23 09:03:20;;;;;;;6.90;4.68;;;19.50;99.90;;;;;;5057328;28;20167;-78
2023/06/23 09:05:46;;;;;;;7.40;4.40;;;19.70;99.90;;;;;;5056921;28;20225;-78
2023/06/23 09:08:13;;;;;;;7.65;4.93;;;19.90;99.90;;;;;;5056754;28;20175;-79
2023/06/23 09:10:38;;;;;;;7.93;4.72;;;20.10;99.90;;;;;;5057877;28;20202;-79
2023/06/23 09:13:07;;;;;;;5.90;4.40;;;20.10;99.90;;;;;;5039463;28;20547;-79
2023/06/23 09:15:34;;;;;;;8.75;4.80;;;20.20;99.90;;;;;;5057108;28;20179;-79
2023/06/23 09:18:02;;;;;;;8.02;5.10;;;20.50;99.90;;;;;;5039359;28;20285;-78
2023/06/23 09:20:32;;;;;;;7.28;4.63;;;20.60;99.90;;;;;;5058254;28;20199;-78
2023/06/23 09:22:58;;;;;;;6.78;4.07;;;20.60;99.90;;;;;;5039298;28;20525;-78
2023/06/23 09:25:54;;;;;;;6.32;4.68;;;20.60;99.90;;;;;;5056282;28;20257;-77
2023/06/23 09:28:40;;;;;;;5.43;4.10;;;20.60;99.90;;;;;;5039239;28;20179;-78
2023/06/23 09:31:16;;;;;;;6.18;5.00;;;20.60;99.90;;;;;;5055737;28;20182;-77
2023/06/23 09:34:00;;;;;;;7.82;4.72;;;20.70;99.90;;;;;;5054181;28;20229;-78
2023/06/23 09:36:33;;;;;;;5.93;4.40;;;21.00;99.90;;;;;;5054951;28;20190;-78
2023/06/23 09:39:01;;;;;;;4.60;4.07;;;21.30;99.90;;;;;;5055481;28;20622;-78
2023/06/23 09:41:31;;;;;;;6.75;4.20;;;21.60;99.90;;;;;;5055167;28;20162;-77
2023/06/23 09:43:58;;;;;;;8.23;5.18;;;21.70;99.90;;;;;;5055225;28;20636;-78
2023/06/23 09:46:27;;;;;;;5.38;4.35;;;21.80;99.90;;;;;;5037010;28;20202;-78
2023/06/23 09:48:53;;;;;;;6.90;4.50;;;21.70;99.90;;;;;;5054822;28;20268;-78
2023/06/23 09:51:20;;;;;;;7.75;4.38;;;21.50;99.90;;;;;;5054930;28;20163;-78
2023/06/23 09:53:47;;;;;;;6.50;4.43;;;21.40;99.90;;;;;;5036804;28;20174;-78
2023/06/23 09:56:18;;;;;;;7.65;4.93;;;21.40;99.90;;;;;;5036422;28;20597;-78
2023/06/23 09:58:46;;;;;;;7.28;4.10;;;21.50;99.90;;;;;;5054739;28;20162;-77
2023/06/23 10:01:13;;;;;;;6.90;4.38;;;21.60;99.90;;;;;;5036439;28;20174;-78
2023/06/23 10:03:47;;;;;;;7.00;4.05;;;21.80;99.90;;;;;;5054654;28;20198;-78
2023/06/23 10:06:31;;;;;;;5.22;3.70;;;22.10;99.90;;;;;;5036382;28;20271;-78
2023/06/23 10:08:59;;;;;;;5.97;4.10;;;22.10;99.90;;;;;;5036319;28;20200;-78
2023/06/23 10:11:32;;;;;;;5.07;3.90;;;22.30;99.90;;;;;;5037057;28;20547;-78
2023/06/23 10:14:01;;;;;;;5.80;4.47;;;22.30;99.90;;;;;;5054635;28;20611;-78
2023/06/23 10:16:28;;;;;;;6.35;4.68;;;22.40;99.90;;;;;;5054646;28;20562;-77
2023/06/23 10:18:54;;;;;;;5.25;3.95;;;22.40;99.90;;;;;;5036231;28;20181;-77
2023/06/23 10:21:21;;;;;;;6.18;3.78;;;22.40;99.90;;;;;;5036520;28;20170;-78
2023/06/23 10:23:48;;;;;;;6.28;4.60;;;22.50;99.90;;;;;;5054199;28;20181;-78
2023/06/23 10:26:16;;;;;;;6.18;4.25;;;22.70;99.90;;;;;;5036433;28;20266;-77
2023/06/23 10:28:45;;;;;;;9.90;4.60;;;22.80;99.90;;;;;;5055053;28;20181;-78
2023/06/23 10:31:12;;;;;;;7.05;4.43;;;22.90;99.90;;;;;;5036337;28;20232;-77
2023/06/23 10:33:40;;;;;;;7.28;4.38;;;23.10;99.90;;;;;;5053892;28;20244;-77
2023/06/23 10:36:08;;;;;;;7.20;4.45;;;23.10;99.90;;;;;;5053955;28;20190;-77
2023/06/23 10:38:38;;;;;;;6.32;4.32;;;23.10;99.90;;;;;;5053807;28;20220;-77
2023/06/23 10:41:06;;;;;;;8.90;4.85;;;23.00;99.90;;;;;;5036224;28;20228;-78
2023/06/23 10:43:34;;;;;;;4.10;3.63;;;22.90;99.90;;;;;;5055547;28;20221;-76
2023/06/23 10:46:00;;;;;;;6.45;4.50;;;22.60;99.90;;;;;;5058540;28;20653;-75
2023/06/23 10:48:30;;;;;;;7.30;4.70;;;22.30;99.90;;;;;;5058345;28;20547;-76
2023/06/23 10:50:56;;;;;;;4.68;3.80;;;22.20;99.90;;;;;;5040397;28;20186;-77
2023/06/23 10:53:28;;;;;;;5.47;3.72;;;22.30;99.90;;;;;;5040366;28;20650;-76
2023/06/23 10:55:58;;;;;;;6.05;4.38;;;22.60;99.90;;;;;;5057702;28;20159;-77
2023/06/23 10:58:24;;;;;;;5.30;4.10;;;22.80;99.90;;;;;;5057640;28;20249;-76
2023/06/23 11:00:53;;;;;;;5.40;4.15;;;23.00;99.90;;;;;;5057400;28;20206;-77
2023/06/23 11:03:38;;;;;;;5.55;4.25;;;23.30;99.90;;;;;;5039461;28;20175;-77
2023/06/23 11:06:06;;;;;;;5.18;3.75;;;23.30;99.90;;;;;;5057033;28;20194;-77
2023/06/23 11:08:44;;;;;;;5.75;4.10;;;23.40;99.90;;;;;;5057233;28;20186;-77
2023/06/23 11:11:15;;;;;;;7.22;4.15;;;23.30;99.90;;;;;;5057246;28;20151;-77
2023/06/23 11:13:48;;;;;;;5.63;4.13;;;23.40;99.90;;;;;;5039578;28;20183;-77
2023/06/23 11:16:18;;;;;;;5.80;4.07;;;23.60;99.90;;;;;;5039140;28;20572;-76
2023/06/23 11:18:49;;;;;;;6.38;4.03;;;23.60;99.90;;;;;;5056930;28;20171;-77
2023/06/23 11:21:17;;;;;;;5.95;4.10;;;23.90;99.90;;;;;;5056933;28;20186;-77
2023/06/23 11:24:11;;;;;;;8.27;4.50;;;24.00;99.90;;;;;;5057100;28;20186;-77
2023/06/23 11:26:42;;;;;;;6.75;4.85;;;24.00;99.90;;;;;;5057710;28;20194;-77
2023/06/23 11:29:14;;;;;;;7.95;4.68;;;24.00;99.90;;;;;;5039244;28;20635;-77
2023/06/23 11:32:06;;;;;;;5.55;4.13;;;24.00;99.90;;;;;;5039051;28;20183;-77
2023/06/23 11:34:57;;;;;;;7.78;4.97;;;23.70;99.90;;;;;;5038810;28;20202;-76
2023/06/23 11:37:28;;;;;;;9.93;4.88;;;23.80;99.90;;;;;;5056473;28;20192;-77
2023/06/23 11:39:55;;;;;;;7.82;5.15;;;24.00;99.90;;;;;;5056762;28;20201;-75
2023/06/23 11:42:22;;;;;;;5.57;3.78;;;24.00;99.90;;;;;;5038499;28;20634;-76
2023/06/23 11:44:48;;;;;;;4.72;3.45;;;24.20;99.90;;;;;;5038462;28;20185;-77
2023/06/23 11:47:15;;;;;;;8.13;4.53;;;24.50;99.90;;;;;;5038498;28;20222;-75
2023/06/23 11:49:41;;;;;;;6.88;4.22;;;24.40;99.90;;;;;;5038828;28;20186;-75
2023/06/23 11:52:08;;;;;;;8.30;4.88;;;24.10;99.90;;;;;;5038914;28;20182;-75
2023/06/23 11:54:38;;;;;;;6.25;4.68;;;23.70;99.90;;;;;;5056602;28;20248;-76
2023/06/23 11:57:05;;;;;;;7.90;4.70;;;23.80;99.90;;;;;;5037371;28;20198;-75
2023/06/23 11:59:37;;;;;;;9.23;3.83;;;24.00;99.90;;;;;;5056651;28;20214;-76
2023/06/23 12:02:04;;;;;;;5.50;3.70;;;24.30;99.90;;;;;;5038149;28;20224;-77
2023/06/23 12:04:31;;;;;;;7.10;4.65;;;24.60;99.90;;;;;;5056165;28;20179;-77
2023/06/23 12:06:59;;;;;;;7.18;4.60;;;24.80;99.90;;;;;;5038220;28;20198;-76
2023/06/23 12:09:25;;;;;;;5.65;4.20;;;24.90;99.90;;;;;;5038158;28;20175;-76
2023/06/23 12:11:53;;;;;;;6.63;4.93;;;24.80;99.90;;;;;;5038034;28;20249;-76
2023/06/23 12:14:19;;;;;;;5.65;4.30;;;24.50;99.90;;;;;;5056162;28;20229;-76
2023/06/23 12:16:44;;;;;;;6.50;3.75;;;24.30;99.90;;;;;;5056443;28;20191;-76
2023/06/23 12:19:10;;;;;;;5.90;4.05;;;24.50;99.90;;;;;;5037941;28;20289;-76
2023/06/23 12:21:40;;;;;;;6.00;4.00;;;24.70;99.90;;;;;;5055659;28;20174;-76
2023/06/23 12:24:09;;;;;;;5.57;4.25;;;24.90;99.90;;;;;;5037957;28;20643;-76
2023/06/23 12:26:40;;;;;;;5.10;3.72;;;24.90;99.90;;;;;;5039282;28;20203;-76
2023/06/23 12:29:08;;;;;;;6.75;3.53;;;25.00;99.90;;;;;;5038856;28;20178;-77
2023/06/23 12:31:34;;;;;;;6.97;3.90;;;25.20;99.90;;;;;;5038808;28;20186;-76
2023/06/23 12:34:03;;;;;;;6.05;4.03;;;25.20;99.90;;;;;;5056232;28;20190;-76
2023/06/23 12:36:29;;;;;;;5.72;3.95;;;24.90;99.90;;;;;;5038014;28;20673;-76
2023/06/23 12:38:55;;;;;;;7.45;4.32;;;24.80;99.90;;;;;;5037566;28;20631;-76
2023/06/23 12:41:28;;;;;;;7.70;4.18;;;24.80;99.90;;;;;;5037600;28;20182;-77
2023/06/23 12:43:55;;;;;;;4.68;3.40;;;24.90;99.90;;;;;;5055326;28;20175;-76
2023/06/23 12:46:25;;;;;;;4.60;3.55;;;24.90;99.90;;;;;;5055409;28;20194;-76